sensor_id;sensor_type;location;lat;lon;timestamp;temperature;humidity
2997;DHT22;1508;48.744;9.110;2023-04-24T00:01:05;10.00;99.90
2997;DHT22;1508;48.744;9.110;2023-04-24T00:03:51;10.00;99.90
2997;DHT22;1508;48.744;9.110;2023-04-24T00:06:37;10.00;99.90
2997;DHT22;1508;48.744;9.110;2023-04-24T00:09:23;10.10;99.90
2997;DHT22;1508;48.744;9.110;2023-04-24T00:12:09;10.10;99.90
2997;DHT22;1508;48.744;9.110;2023-04-24T00:14:55;10.10;99.90
2997;DHT22;1508;48.744;9.110;2023-04-24T00:17:40;10.10;99.90
2997;DHT22;1508;48.744;9.110;2023-04-24T00:20:26;10.10;99.90
2997;DHT22;1508;48.744;9.110;2023-04-24T00:23:12;10.20;99.90
2997;DHT22;1508;48.744;9.110;2023-04-24T00:25:58;10.20;99.90
2997;DHT22;1508;48.744;9.110;2023-04-24T00:28:44;10.20;99.90
2997;DHT22;1508;48.744;9.110;2023-04-24T00:31:30;10.20;99.90
2997;DHT22;1508;48.744;9.110;2023-04-24T00:34:15;10.30;99.90
2997;DHT22;1508;48.744;9.110;2023-04-24T00:37:01;10.30;99.90
2997;DHT22;1508;48.744;9.110;2023-04-24T00:39:47;10.30;99.90
2997;DHT22;1508;48.744;9.110;2023-04-24T00:42:32;10.30;99.90
2997;DHT22;1508;48.744;9.110;2023-04-24T00:45:19;10.30;99.90
2997;DHT22;1508;48.744;9.110;2023-04-24T00:48:04;10.30;99.90
2997;DHT22;1508;48.744;9.110;2023-04-24T00:50:50;10.30;99.90
2997;DHT22;1508;48.744;9.110;2023-04-24T00:53:36;10.40;99.90
2997;DHT22;1508;48.744;9.110;2023-04-24T00:56:22;10.40;99.90
2997;DHT22;1508;48.744;9.110;2023-04-24T00:59:08;10.40;99.90
2997;DHT22;1508;48.744;9.110;2023-04-24T01:01:54;10.40;99.90
2997;DHT22;1508;48.744;9.110;2023-04-24T01:04:40;10.40;99.90
2997;DHT22;1508;48.744;9.110;2023-04-24T01:07:26;10.40;99.90
2997;DHT22;1508;48.744;9.110;2023-04-24T01:10:13;10.40;99.90
2997;DHT22;1508;48.744;9.110;2023-04-24T01:12:59;10.40;99.90
2997;DHT22;1508;48.744;9.110;2023-04-24T01:15:45;10.40;99.90
2997;DHT22;1508;48.744;9.110;2023-04-24T01:18:30;10.40;99.90
2997;DHT22;1508;48.744;9.110;2023-04-24T01:21:16;10.40;99.90
2997;DHT22;1508;48.744;9.110;2023-04-24T01:24:04;10.50;99.90
2997;DHT22;1508;48.744;9.110;2023-04-24T01:26:50;10.50;99.90
2997;DHT22;1508;48.744;9.110;2023-04-24T01:29:36;10.40;99.90
2997;DHT22;1508;48.744;9.110;2023-04-24T01:32:21;10.40;99.90
2997;DHT22;1508;48.744;9.110;2023-04-24T01:35:07;10.40;99.90
2997;DHT22;1508;48.744;9.110;2023-04-24T01:37:53;10.30;99.90
2997;DHT22;1508;48.744;9.110;2023-04-24T01:40:39;10.30;99.90
2997;DHT22;1508;48.744;9.110;2023-04-24T01:43:24;10.20;99.90
2997;DHT22;1508;48.744;9.110;2023-04-24T01:46:10;10.20;99.90
2997;DHT22;1508;48.744;9.110;2023-04-24T01:48:56;10.20;99.90
2997;DHT22;1508;48.744;9.110;2023-04-24T01:51:44;10.20;99.90
2997;DHT22;1508;48.744;9.110;2023-04-24T01:54:29;10.20;99.90
2997;DHT22;1508;48.744;9.110;2023-04-24T01:57:15;10.20;99.90
2997;DHT22;1508;48.744;9.110;2023-04-24T02:00:02;10.10;99.90
2997;DHT22;1508;48.744;9.110;2023-04-24T02:02:48;10.10;99.90
2997;DHT22;1508;48.744;9.110;2023-04-24T02:05:33;10.10;99.90
2997;DHT22;1508;48.744;9.110;2023-04-24T02:08:19;10.00;99.90
2997;DHT22;1508;48.744;9.110;2023-04-24T02:11:05;10.10;99.90
2997;DHT22;1508;48.744;9.110;2023-04-24T02:13:51;10.10;99.90
2997;DHT22;1508;48.744;9.110;2023-04-24T02:16:37;10.10;99.90
2997;DHT22;1508;48.744;9.110;2023-04-24T02:19:22;10.00;99.90
2997;DHT22;1508;48.744;9.110;2023-04-24T02:22:08;10.00;99.90
2997;DHT22;1508;48.744;9.110;2023-04-24T02:24:54;10.00;99.90
2997;DHT22;1508;48.744;9.110;2023-04-24T02:27:40;10.00;99.90
2997;DHT22;1508;48.744;9.110;2023-04-24T02:30:26;10.00;99.90
2997;DHT22;1508;48.744;9.110;2023-04-24T02:33:12;10.00;99.90
2997;DHT22;1508;48.744;9.110;2023-04-24T02:35:57;10.00;99.90
2997;DHT22;1508;48.744;9.110;2023-04-24T02:38:43;10.10;99.90
2997;DHT22;1508;48.744;9.110;2023-04-24T02:41:29;10.10;99.90
2997;DHT22;1508;48.744;9.110;2023-04-24T02:44:14;10.10;99.90
2997;DHT22;1508;48.744;9.110;2023-04-24T02:47:00;10.20;99.90
2997;DHT22;1508;48.744;9.110;2023-04-24T02:49:46;10.30;99.90
2997;DHT22;1508;48.744;9.110;2023-04-24T02:52:32;10.30;99.90
2997;DHT22;1508;48.744;9.110;2023-04-24T02:55:17;10.30;99.90
2997;DHT22;1508;48.744;9.110;2023-04-24T02:58:03;10.30;99.90
2997;DHT22;1508;48.744;9.110;2023-04-24T03:00:49;10.30;99.90
2997;DHT22;1508;48.744;9.110;2023-04-24T03:03:38;10.20;99.90
2997;DHT22;1508;48.744;9.110;2023-04-24T03:06:24;10.10;99.90
2997;DHT22;1508;48.744;9.110;2023-04-24T03:09:10;10.10;99.90
2997;DHT22;1508;48.744;9.110;2023-04-24T03:11:56;9.90;99.90
2997;DHT22;1508;48.744;9.110;2023-04-24T03:14:41;9.90;99.90
2997;DHT22;1508;48.744;9.110;2023-04-24T03:17:27;9.80;99.90
2997;DHT22;1508;48.744;9.110;2023-04-24T03:20:13;9.70;99.90
2997;DHT22;1508;48.744;9.110;2023-04-24T03:22:58;9.60;99.90
2997;DHT22;1508;48.744;9.110;2023-04-24T03:25:44;9.60;99.90
2997;DHT22;1508;48.744;9.110;2023-04-24T03:28:30;9.50;99.90
2997;DHT22;1508;48.744;9.110;2023-04-24T03:31:16;9.40;99.90
2997;DHT22;1508;48.744;9.110;2023-04-24T03:34:01;9.40;99.90
2997;DHT22;1508;48.744;9.110;2023-04-24T03:36:47;9.50;99.90
2997;DHT22;1508;48.744;9.110;2023-04-24T03:39:33;9.50;99.90
2997;DHT22;1508;48.744;9.110;2023-04-24T03:42:19;9.50;99.90
2997;DHT22;1508;48.744;9.110;2023-04-24T03:45:04;9.50;99.90
2997;DHT22;1508;48.744;9.110;2023-04-24T03:47:50;9.50;99.90
2997;DHT22;1508;48.744;9.110;2023-04-24T03:50:36;9.40;99.90
2997;DHT22;1508;48.744;9.110;2023-04-24T03:53:22;9.40;99.90
2997;DHT22;1508;48.744;9.110;2023-04-24T03:56:08;9.30;99.90
2997;DHT22;1508;48.744;9.110;2023-04-24T03:58:53;9.30;99.90
2997;DHT22;1508;48.744;9.110;2023-04-24T04:01:39;9.20;99.90
2997;DHT22;1508;48.744;9.110;2023-04-24T04:04:25;9.20;99.90
2997;DHT22;1508;48.744;9.110;2023-04-24T04:07:11;9.20;99.90
2997;DHT22;1508;48.744;9.110;2023-04-24T04:09:56;9.10;99.90
2997;DHT22;1508;48.744;9.110;2023-04-24T04:12:42;9.20;99.90
2997;DHT22;1508;48.744;9.110;2023-04-24T04:15:28;9.20;99.90
2997;DHT22;1508;48.744;9.110;2023-04-24T04:18:14;9.30;99.90
2997;DHT22;1508;48.744;9.110;2023-04-24T04:20:59;9.40;99.90
2997;DHT22;1508;48.744;9.110;2023-04-24T04:23:45;9.40;99.90
2997;DHT22;1508;48.744;9.110;2023-04-24T04:26:31;9.40;99.90
2997;DHT22;1508;48.744;9.110;2023-04-24T04:29:17;9.40;99.90
2997;DHT22;1508;48.744;9.110;2023-04-24T04:32:03;9.10;99.90
2997;DHT22;1508;48.744;9.110;2023-04-24T04:34:49;8.90;99.90
2997;DHT22;1508;48.744;9.110;2023-04-24T04:37:34;8.90;99.90
2997;DHT22;1508;48.744;9.110;2023-04-24T04:40:20;8.90;99.90
2997;DHT22;1508;48.744;9.110;2023-04-24T04:43:06;8.60;99.90
2997;DHT22;1508;48.744;9.110;2023-04-24T04:45:52;8.50;99.90
2997;DHT22;1508;48.744;9.110;2023-04-24T04:48:37;8.30;99.90
2997;DHT22;1508;48.744;9.110;2023-04-24T04:51:23;8.30;99.90
2997;DHT22;1508;48.744;9.110;2023-04-24T04:54:09;8.20;99.90
2997;DHT22;1508;48.744;9.110;2023-04-24T04:56:55;8.20;99.90
2997;DHT22;1508;48.744;9.110;2023-04-24T04:59:40;8.40;99.90
2997;DHT22;1508;48.744;9.110;2023-04-24T05:02:26;8.50;99.90
2997;DHT22;1508;48.744;9.110;2023-04-24T05:05:12;8.50;99.90
2997;DHT22;1508;48.744;9.110;2023-04-24T05:07:58;8.50;99.90
2997;DHT22;1508;48.744;9.110;2023-04-24T05:10:43;8.50;99.90
2997;DHT22;1508;48.744;9.110;2023-04-24T05:13:29;8.50;99.90
2997;DHT22;1508;48.744;9.110;2023-04-24T05:16:15;8.50;99.90
2997;DHT22;1508;48.744;9.110;2023-04-24T05:19:00;8.50;99.90
2997;DHT22;1508;48.744;9.110;2023-04-24T05:21:46;8.60;99.90
2997;DHT22;1508;48.744;9.110;2023-04-24T05:24:32;8.50;99.90
2997;DHT22;1508;48.744;9.110;2023-04-24T05:27:18;8.60;99.90
2997;DHT22;1508;48.744;9.110;2023-04-24T05:30:04;8.50;99.90
2997;DHT22;1508;48.744;9.110;2023-04-24T05:32:50;8.70;99.90
2997;DHT22;1508;48.744;9.110;2023-04-24T05:35:36;8.90;99.90
2997;DHT22;1508;48.744;9.110;2023-04-24T05:38:22;9.00;99.90
2997;DHT22;1508;48.744;9.110;2023-04-24T05:41:07;9.50;99.90
2997;DHT22;1508;48.744;9.110;2023-04-24T05:43:53;9.50;99.90
2997;DHT22;1508;48.744;9.110;2023-04-24T05:46:39;9.20;99.90
2997;DHT22;1508;48.744;9.110;2023-04-24T05:49:25;9.20;99.90
2997;DHT22;1508;48.744;9.110;2023-04-24T05:52:10;9.30;99.90
2997;DHT22;1508;48.744;9.110;2023-04-24T05:54:56;9.30;99.90
2997;DHT22;1508;48.744;9.110;2023-04-24T05:57:42;9.20;99.90
2997;DHT22;1508;48.744;9.110;2023-04-24T06:00:27;9.10;99.90
2997;DHT22;1508;48.744;9.110;2023-04-24T06:03:15;9.10;99.90
2997;DHT22;1508;48.744;9.110;2023-04-24T06:06:01;9.10;99.90
2997;DHT22;1508;48.744;9.110;2023-04-24T06:08:47;9.20;99.90
2997;DHT22;1508;48.744;9.110;2023-04-24T06:11:32;9.00;99.90
2997;DHT22;1508;48.744;9.110;2023-04-24T06:14:19;9.20;99.90
2997;DHT22;1508;48.744;9.110;2023-04-24T06:17:04;9.30;99.90
2997;DHT22;1508;48.744;9.110;2023-04-24T06:19:50;9.50;99.90
2997;DHT22;1508;48.744;9.110;2023-04-24T06:22:36;9.70;99.90
2997;DHT22;1508;48.744;9.110;2023-04-24T06:25:24;10.10;99.90
2997;DHT22;1508;48.744;9.110;2023-04-24T06:28:10;10.40;99.90
2997;DHT22;1508;48.744;9.110;2023-04-24T06:30:55;10.70;99.90
2997;DHT22;1508;48.744;9.110;2023-04-24T06:33:41;11.10;99.90
2997;DHT22;1508;48.744;9.110;2023-04-24T06:36:27;11.10;99.90
2997;DHT22;1508;48.744;9.110;2023-04-24T06:39:13;11.30;99.90
2997;DHT22;1508;48.744;9.110;2023-04-24T06:41:59;10.90;99.90
2997;DHT22;1508;48.744;9.110;2023-04-24T06:44:45;10.50;99.90
2997;DHT22;1508;48.744;9.110;2023-04-24T06:47:31;10.50;99.90
2997;DHT22;1508;48.744;9.110;2023-04-24T06:50:17;10.50;99.90
2997;DHT22;1508;48.744;9.110;2023-04-24T06:53:02;10.80;99.90
2997;DHT22;1508;48.744;9.110;2023-04-24T06:55:48;11.20;99.90
2997;DHT22;1508;48.744;9.110;2023-04-24T06:58:34;11.70;99.90
2997;DHT22;1508;48.744;9.110;2023-04-24T07:01:20;12.00;99.90
2997;DHT22;1508;48.744;9.110;2023-04-24T07:04:06;11.90;99.90
2997;DHT22;1508;48.744;9.110;2023-04-24T07:06:52;12.00;99.90
2997;DHT22;1508;48.744;9.110;2023-04-24T07:09:37;11.90;99.90
2997;DHT22;1508;48.744;9.110;2023-04-24T07:12:23;12.00;99.90
2997;DHT22;1508;48.744;9.110;2023-04-24T07:15:09;11.70;99.90
2997;DHT22;1508;48.744;9.110;2023-04-24T07:17:55;11.30;99.90
2997;DHT22;1508;48.744;9.110;2023-04-24T07:20:40;11.00;99.90
2997;DHT22;1508;48.744;9.110;2023-04-24T07:23:26;10.30;99.90
2997;DHT22;1508;48.744;9.110;2023-04-24T07:26:12;10.30;99.90
2997;DHT22;1508;48.744;9.110;2023-04-24T07:28:58;10.60;99.90
2997;DHT22;1508;48.744;9.110;2023-04-24T07:31:44;10.90;99.90
2997;DHT22;1508;48.744;9.110;2023-04-24T07:34:29;11.20;99.90
2997;DHT22;1508;48.744;9.110;2023-04-24T07:37:15;11.50;99.90
2997;DHT22;1508;48.744;9.110;2023-04-24T07:40:01;11.80;99.90
2997;DHT22;1508;48.744;9.110;2023-04-24T07:42:47;12.10;99.90
2997;DHT22;1508;48.744;9.110;2023-04-24T07:45:32;12.10;99.90
2997;DHT22;1508;48.744;9.110;2023-04-24T07:48:18;11.90;99.90
2997;DHT22;1508;48.744;9.110;2023-04-24T07:51:04;11.80;99.90
2997;DHT22;1508;48.744;9.110;2023-04-24T07:53:49;11.70;99.90
2997;DHT22;1508;48.744;9.110;2023-04-24T07:56:35;11.80;99.90
2997;DHT22;1508;48.744;9.110;2023-04-24T07:59:21;12.00;99.90
2997;DHT22;1508;48.744;9.110;2023-04-24T08:02:07;11.60;99.90
2997;DHT22;1508;48.744;9.110;2023-04-24T08:04:53;11.40;99.90
2997;DHT22;1508;48.744;9.110;2023-04-24T08:07:38;11.10;99.90
2997;DHT22;1508;48.744;9.110;2023-04-24T08:10:24;11.10;99.90
2997;DHT22;1508;48.744;9.110;2023-04-24T08:13:10;11.60;99.90
2997;DHT22;1508;48.744;9.110;2023-04-24T08:15:56;11.40;99.90
2997;DHT22;1508;48.744;9.110;2023-04-24T08:18:42;11.60;99.90
2997;DHT22;1508;48.744;9.110;2023-04-24T08:21:28;11.40;99.90
2997;DHT22;1508;48.744;9.110;2023-04-24T08:24:13;11.60;99.90
2997;DHT22;1508;48.744;9.110;2023-04-24T08:26:59;11.60;99.90
2997;DHT22;1508;48.744;9.110;2023-04-24T08:29:45;11.60;99.90
2997;DHT22;1508;48.744;9.110;2023-04-24T08:32:31;11.40;99.90
2997;DHT22;1508;48.744;9.110;2023-04-24T08:35:17;11.60;99.90
2997;DHT22;1508;48.744;9.110;2023-04-24T08:38:02;12.10;99.90
2997;DHT22;1508;48.744;9.110;2023-04-24T08:40:48;12.10;99.90
2997;DHT22;1508;48.744;9.110;2023-04-24T08:43:34;11.80;99.90
2997;DHT22;1508;48.744;9.110;2023-04-24T08:46:20;11.80;99.90
2997;DHT22;1508;48.744;9.110;2023-04-24T08:49:05;12.00;99.90
2997;DHT22;1508;48.744;9.110;2023-04-24T08:51:52;11.80;99.90
2997;DHT22;1508;48.744;9.110;2023-04-24T08:54:37;12.30;99.90
2997;DHT22;1508;48.744;9.110;2023-04-24T08:57:23;12.50;99.90
2997;DHT22;1508;48.744;9.110;2023-04-24T09:00:10;12.60;99.90
2997;DHT22;1508;48.744;9.110;2023-04-24T09:02:56;12.90;99.90
2997;DHT22;1508;48.744;9.110;2023-04-24T09:05:43;13.00;99.90
2997;DHT22;1508;48.744;9.110;2023-04-24T09:08:29;12.40;99.90
2997;DHT22;1508;48.744;9.110;2023-04-24T09:11:15;11.40;99.90
2997;DHT22;1508;48.744;9.110;2023-04-24T09:14:01;11.10;99.90
2997;DHT22;1508;48.744;9.110;2023-04-24T09:16:47;10.90;99.90
2997;DHT22;1508;48.744;9.110;2023-04-24T09:19:33;10.80;99.90
2997;DHT22;1508;48.744;9.110;2023-04-24T09:22:18;10.70;99.90
2997;DHT22;1508;48.744;9.110;2023-04-24T09:25:06;10.50;99.90
2997;DHT22;1508;48.744;9.110;2023-04-24T09:27:53;10.40;99.90
2997;DHT22;1508;48.744;9.110;2023-04-24T09:30:39;9.90;99.90
2997;DHT22;1508;48.744;9.110;2023-04-24T09:33:24;10.00;99.90
2997;DHT22;1508;48.744;9.110;2023-04-24T09:36:10;10.10;99.90
2997;DHT22;1508;48.744;9.110;2023-04-24T09:39:03;10.20;99.90
2997;DHT22;1508;48.744;9.110;2023-04-24T09:41:52;10.40;99.90
2997;DHT22;1508;48.744;9.110;2023-04-24T09:44:38;10.90;99.90
2997;DHT22;1508;48.744;9.110;2023-04-24T09:47:24;11.10;99.90
2997;DHT22;1508;48.744;9.110;2023-04-24T09:50:14;11.30;99.90
2997;DHT22;1508;48.744;9.110;2023-04-24T09:53:03;11.10;99.90
2997;DHT22;1508;48.744;9.110;2023-04-24T09:55:49;10.60;99.90
2997;DHT22;1508;48.744;9.110;2023-04-24T09:58:35;10.50;99.90
2997;DHT22;1508;48.744;9.110;2023-04-24T10:01:31;10.50;99.90
2997;DHT22;1508;48.744;9.110;2023-04-24T10:04:23;10.70;99.90
2997;DHT22;1508;48.744;9.110;2023-04-24T10:07:09;10.70;99.90
2997;DHT22;1508;48.744;9.110;2023-04-24T10:09:54;11.00;99.90
2997;DHT22;1508;48.744;9.110;2023-04-24T10:12:40;11.50;99.90
2997;DHT22;1508;48.744;9.110;2023-04-24T10:15:27;11.60;99.90
2997;DHT22;1508;48.744;9.110;2023-04-24T10:18:13;11.70;99.90
2997;DHT22;1508;48.744;9.110;2023-04-24T10:20:59;12.00;99.90
2997;DHT22;1508;48.744;9.110;2023-04-24T10:23:45;12.20;99.90
2997;DHT22;1508;48.744;9.110;2023-04-24T10:26:31;11.90;99.90
2997;DHT22;1508;48.744;9.110;2023-04-24T10:29:17;11.70;99.90
2997;DHT22;1508;48.744;9.110;2023-04-24T10:32:03;11.90;99.90
2997;DHT22;1508;48.744;9.110;2023-04-24T10:34:52;12.40;99.90
2997;DHT22;1508;48.744;9.110;2023-04-24T10:37:38;12.50;99.90
2997;DHT22;1508;48.744;9.110;2023-04-24T10:40:35;12.60;99.90
2997;DHT22;1508;48.744;9.110;2023-04-24T10:43:21;12.50;99.90
2997;DHT22;1508;48.744;9.110;2023-04-24T10:46:07;12.40;99.90
2997;DHT22;1508;48.744;9.110;2023-04-24T10:48:54;11.80;99.90
2997;DHT22;1508;48.744;9.110;2023-04-24T10:51:44;11.70;99.90
2997;DHT22;1508;48.744;9.110;2023-04-24T10:54:34;11.70;99.90
2997;DHT22;1508;48.744;9.110;2023-04-24T11:00:16;12.20;99.90
2997;DHT22;1508;48.744;9.110;2023-04-24T11:03:09;11.90;99.90
2997;DHT22;1508;48.744;9.110;2023-04-24T11:06:07;11.70;99.90
2997;DHT22;1508;48.744;9.110;2023-04-24T11:08:57;11.40;99.90
2997;DHT22;1508;48.744;9.110;2023-04-24T11:11:44;10.90;99.90
2997;DHT22;1508;48.744;9.110;2023-04-24T11:14:30;11.10;99.90
2997;DHT22;1508;48.744;9.110;2023-04-24T11:17:27;11.10;99.90
2997;DHT22;1508;48.744;9.110;2023-04-24T11:20:16;11.00;99.90
2997;DHT22;1508;48.744;9.110;2023-04-24T11:23:03;11.00;99.90
2997;DHT22;1508;48.744;9.110;2023-04-24T11:26:09;11.20;99.90
2997;DHT22;1508;48.744;9.110;2023-04-24T11:28:55;11.40;99.90
2997;DHT22;1508;48.744;9.110;2023-04-24T11:31:51;11.70;99.90
2997;DHT22;1508;48.744;9.110;2023-04-24T11:34:36;11.80;99.90
2997;DHT22;1508;48.744;9.110;2023-04-24T11:37:24;12.40;99.90
2997;DHT22;1508;48.744;9.110;2023-04-24T11:40:12;12.10;99.90
2997;DHT22;1508;48.744;9.110;2023-04-24T11:42:59;11.60;99.90
2997;DHT22;1508;48.744;9.110;2023-04-24T11:45:48;11.30;99.90
2997;DHT22;1508;48.744;9.110;2023-04-24T11:48:36;11.60;99.90
2997;DHT22;1508;48.744;9.110;2023-04-24T11:51:22;11.70;99.90
2997;DHT22;1508;48.744;9.110;2023-04-24T11:54:08;11.40;99.90
2997;DHT22;1508;48.744;9.110;2023-04-24T11:56:55;11.30;99.90
2997;DHT22;1508;48.744;9.110;2023-04-24T11:59:41;11.50;99.90
2997;DHT22;1508;48.744;9.110;2023-04-24T12:02:27;11.90;99.90
2997;DHT22;1508;48.744;9.110;2023-04-24T12:05:24;12.20;99.90
2997;DHT22;1508;48.744;9.110;2023-04-24T12:08:10;12.30;99.90
2997;DHT22;1508;48.744;9.110;2023-04-24T12:10:56;12.80;99.90
2997;DHT22;1508;48.744;9.110;2023-04-24T12:13:42;12.30;99.90
2997;DHT22;1508;48.744;9.110;2023-04-24T12:16:27;11.40;99.90
2997;DHT22;1508;48.744;9.110;2023-04-24T12:19:17;11.40;99.90
2997;DHT22;1508;48.744;9.110;2023-04-24T12:22:04;11.40;99.90
2997;DHT22;1508;48.744;9.110;2023-04-24T12:24:56;11.20;99.90
2997;DHT22;1508;48.744;9.110;2023-04-24T12:27:43;11.20;99.90
2997;DHT22;1508;48.744;9.110;2023-04-24T12:30:29;11.20;99.90
2997;DHT22;1508;48.744;9.110;2023-04-24T12:33:21;11.00;99.90
2997;DHT22;1508;48.744;9.110;2023-04-24T12:36:07;11.20;99.90
2997;DHT22;1508;48.744;9.110;2023-04-24T12:38:54;11.40;99.90
2997;DHT22;1508;48.744;9.110;2023-04-24T12:41:49;11.40;99.90
2997;DHT22;1508;48.744;9.110;2023-04-24T12:44:35;11.50;99.90
2997;DHT22;1508;48.744;9.110;2023-04-24T12:47:21;11.20;99.90
2997;DHT22;1508;48.744;9.110;2023-04-24T12:50:07;11.40;99.90
2997;DHT22;1508;48.744;9.110;2023-04-24T12:52:53;11.70;99.90
2997;DHT22;1508;48.744;9.110;2023-04-24T12:55:39;12.00;99.90
2997;DHT22;1508;48.744;9.110;2023-04-24T12:58:25;11.80;99.90
2997;DHT22;1508;48.744;9.110;2023-04-24T13:01:10;11.20;99.90
2997;DHT22;1508;48.744;9.110;2023-04-24T13:03:56;11.20;99.90
2997;DHT22;1508;48.744;9.110;2023-04-24T13:06:42;11.20;99.90
2997;DHT22;1508;48.744;9.110;2023-04-24T13:09:28;10.70;99.90
2997;DHT22;1508;48.744;9.110;2023-04-24T13:12:14;10.80;99.90
2997;DHT22;1508;48.744;9.110;2023-04-24T13:14:59;10.50;99.90
2997;DHT22;1508;48.744;9.110;2023-04-24T13:17:45;10.80;99.90
2997;DHT22;1508;48.744;9.110;2023-04-24T13:20:31;11.30;99.90
2997;DHT22;1508;48.744;9.110;2023-04-24T13:23:17;11.80;99.90
2997;DHT22;1508;48.744;9.110;2023-04-24T13:26:02;12.50;99.90
2997;DHT22;1508;48.744;9.110;2023-04-24T13:28:48;13.10;99.90
2997;DHT22;1508;48.744;9.110;2023-04-24T13:31:34;13.10;99.90
2997;DHT22;1508;48.744;9.110;2023-04-24T13:34:20;12.60;99.90
2997;DHT22;1508;48.744;9.110;2023-04-24T13:37:06;11.90;99.90
2997;DHT22;1508;48.744;9.110;2023-04-24T13:39:52;11.20;99.90
2997;DHT22;1508;48.744;9.110;2023-04-24T13:42:37;11.10;99.90
2997;DHT22;1508;48.744;9.110;2023-04-24T13:45:23;10.70;99.90
2997;DHT22;1508;48.744;9.110;2023-04-24T13:48:09;10.30;99.90
2997;DHT22;1508;48.744;9.110;2023-04-24T13:50:55;9.70;99.90
2997;DHT22;1508;48.744;9.110;2023-04-24T13:53:40;9.40;99.90
2997;DHT22;1508;48.744;9.110;2023-04-24T13:56:26;9.20;99.90
2997;DHT22;1508;48.744;9.110;2023-04-24T13:59:12;9.00;99.90
2997;DHT22;1508;48.744;9.110;2023-04-24T14:01:58;9.20;99.90
2997;DHT22;1508;48.744;9.110;2023-04-24T14:04:44;9.40;99.90
2997;DHT22;1508;48.744;9.110;2023-04-24T14:07:29;9.80;99.90
2997;DHT22;1508;48.744;9.110;2023-04-24T14:10:15;9.90;99.90
2997;DHT22;1508;48.744;9.110;2023-04-24T14:13:01;9.70;99.90
2997;DHT22;1508;48.744;9.110;2023-04-24T14:15:47;9.80;99.90
2997;DHT22;1508;48.744;9.110;2023-04-24T14:18:32;9.70;99.90
2997;DHT22;1508;48.744;9.110;2023-04-24T14:21:18;9.70;99.90
2997;DHT22;1508;48.744;9.110;2023-04-24T14:24:04;9.10;99.90
2997;DHT22;1508;48.744;9.110;2023-04-24T14:26:49;9.00;99.90
2997;DHT22;1508;48.744;9.110;2023-04-24T14:29:35;9.00;99.90
2997;DHT22;1508;48.744;9.110;2023-04-24T14:32:21;9.00;99.90
2997;DHT22;1508;48.744;9.110;2023-04-24T14:35:07;9.30;99.90
2997;DHT22;1508;48.744;9.110;2023-04-24T14:37:53;9.70;99.90
2997;DHT22;1508;48.744;9.110;2023-04-24T14:40:39;9.90;99.90
2997;DHT22;1508;48.744;9.110;2023-04-24T14:43:25;9.70;99.90
2997;DHT22;1508;48.744;9.110;2023-04-24T14:46:11;9.90;99.90
2997;DHT22;1508;48.744;9.110;2023-04-24T14:48:57;10.00;99.90
2997;DHT22;1508;48.744;9.110;2023-04-24T14:51:42;10.20;99.90
2997;DHT22;1508;48.744;9.110;2023-04-24T14:54:28;10.30;99.90
2997;DHT22;1508;48.744;9.110;2023-04-24T14:57:14;10.40;99.90
2997;DHT22;1508;48.744;9.110;2023-04-24T15:00:00;10.60;99.90
2997;DHT22;1508;48.744;9.110;2023-04-24T15:02:45;11.00;99.90
2997;DHT22;1508;48.744;9.110;2023-04-24T15:05:31;11.10;99.90
2997;DHT22;1508;48.744;9.110;2023-04-24T15:08:17;10.90;99.90
2997;DHT22;1508;48.744;9.110;2023-04-24T15:11:03;10.80;99.90
2997;DHT22;1508;48.744;9.110;2023-04-24T15:13:48;11.00;99.90
2997;DHT22;1508;48.744;9.110;2023-04-24T15:16:35;10.70;99.90
2997;DHT22;1508;48.744;9.110;2023-04-24T15:19:20;10.60;99.90
2997;DHT22;1508;48.744;9.110;2023-04-24T15:22:06;10.50;99.90
2997;DHT22;1508;48.744;9.110;2023-04-24T15:24:52;10.40;99.90
2997;DHT22;1508;48.744;9.110;2023-04-24T15:30:26;10.40;99.90
2997;DHT22;1508;48.744;9.110;2023-04-24T15:33:12;10.40;99.90
2997;DHT22;1508;48.744;9.110;2023-04-24T15:35:58;10.30;99.90
2997;DHT22;1508;48.744;9.110;2023-04-24T15:38:44;10.00;99.90
2997;DHT22;1508;48.744;9.110;2023-04-24T15:41:30;9.80;99.90
2997;DHT22;1508;48.744;9.110;2023-04-24T15:44:15;9.90;99.90
2997;DHT22;1508;48.744;9.110;2023-04-24T15:47:01;10.00;99.90
2997;DHT22;1508;48.744;9.110;2023-04-24T15:49:47;10.00;99.90
2997;DHT22;1508;48.744;9.110;2023-04-24T15:52:32;10.00;99.90
2997;DHT22;1508;48.744;9.110;2023-04-24T15:55:18;10.10;99.90
2997;DHT22;1508;48.744;9.110;2023-04-24T15:58:04;10.00;99.90
2997;DHT22;1508;48.744;9.110;2023-04-24T16:00:50;10.20;99.90
2997;DHT22;1508;48.744;9.110;2023-04-24T16:03:35;9.90;99.90
2997;DHT22;1508;48.744;9.110;2023-04-24T16:06:21;10.20;99.90
2997;DHT22;1508;48.744;9.110;2023-04-24T16:09:08;10.20;99.90
2997;DHT22;1508;48.744;9.110;2023-04-24T16:11:53;10.20;99.90
2997;DHT22;1508;48.744;9.110;2023-04-24T16:14:39;10.00;99.90
2997;DHT22;1508;48.744;9.110;2023-04-24T16:17:25;9.90;99.90
2997;DHT22;1508;48.744;9.110;2023-04-24T16:20:11;10.00;99.90
2997;DHT22;1508;48.744;9.110;2023-04-24T16:22:56;10.00;99.90
2997;DHT22;1508;48.744;9.110;2023-04-24T16:25:42;10.10;99.90
2997;DHT22;1508;48.744;9.110;2023-04-24T16:28:29;10.10;99.90
2997;DHT22;1508;48.744;9.110;2023-04-24T16:31:14;10.30;99.90
2997;DHT22;1508;48.744;9.110;2023-04-24T16:34:00;10.50;99.90
2997;DHT22;1508;48.744;9.110;2023-04-24T16:36:46;10.70;99.90
2997;DHT22;1508;48.744;9.110;2023-04-24T16:39:31;10.80;99.90
2997;DHT22;1508;48.744;9.110;2023-04-24T16:42:17;10.90;99.90
2997;DHT22;1508;48.744;9.110;2023-04-24T16:45:03;10.90;99.90
2997;DHT22;1508;48.744;9.110;2023-04-24T16:47:49;11.00;99.90
2997;DHT22;1508;48.744;9.110;2023-04-24T16:50:35;11.00;99.90
2997;DHT22;1508;48.744;9.110;2023-04-24T16:53:21;11.20;99.90
2997;DHT22;1508;48.744;9.110;2023-04-24T16:56:07;11.30;99.90
2997;DHT22;1508;48.744;9.110;2023-04-24T16:58:52;11.20;99.90
2997;DHT22;1508;48.744;9.110;2023-04-24T17:01:38;10.90;99.90
2997;DHT22;1508;48.744;9.110;2023-04-24T17:04:24;10.90;99.90
2997;DHT22;1508;48.744;9.110;2023-04-24T17:07:10;11.00;99.90
2997;DHT22;1508;48.744;9.110;2023-04-24T17:09:56;11.00;99.90
2997;DHT22;1508;48.744;9.110;2023-04-24T17:12:41;10.90;99.90
2997;DHT22;1508;48.744;9.110;2023-04-24T17:15:27;11.00;99.90
2997;DHT22;1508;48.744;9.110;2023-04-24T17:18:13;11.00;99.90
2997;DHT22;1508;48.744;9.110;2023-04-24T17:20:58;11.00;99.90
2997;DHT22;1508;48.744;9.110;2023-04-24T17:23:44;10.80;99.90
2997;DHT22;1508;48.744;9.110;2023-04-24T17:26:30;10.60;99.90
2997;DHT22;1508;48.744;9.110;2023-04-24T17:29:16;10.50;99.90
2997;DHT22;1508;48.744;9.110;2023-04-24T17:32:01;10.50;99.90
2997;DHT22;1508;48.744;9.110;2023-04-24T17:34:47;10.40;99.90
2997;DHT22;1508;48.744;9.110;2023-04-24T17:37:33;10.30;99.90
2997;DHT22;1508;48.744;9.110;2023-04-24T17:40:19;10.40;99.90
2997;DHT22;1508;48.744;9.110;2023-04-24T17:43:04;10.40;99.90
2997;DHT22;1508;48.744;9.110;2023-04-24T17:45:51;10.20;99.90
2997;DHT22;1508;48.744;9.110;2023-04-24T17:48:37;10.10;99.90
2997;DHT22;1508;48.744;9.110;2023-04-24T17:51:23;10.00;99.90
2997;DHT22;1508;48.744;9.110;2023-04-24T17:54:08;10.00;99.90
2997;DHT22;1508;48.744;9.110;2023-04-24T17:56:54;10.00;99.90
2997;DHT22;1508;48.744;9.110;2023-04-24T17:59:40;10.00;99.90
2997;DHT22;1508;48.744;9.110;2023-04-24T18:02:26;9.90;99.90
2997;DHT22;1508;48.744;9.110;2023-04-24T18:05:11;9.90;99.90
2997;DHT22;1508;48.744;9.110;2023-04-24T18:07:57;10.00;99.90
2997;DHT22;1508;48.744;9.110;2023-04-24T18:10:43;10.00;99.90
2997;DHT22;1508;48.744;9.110;2023-04-24T18:13:29;10.00;99.90